Oxley, Arkansas
Current Conditions -  °F | °C
As of 12:55 PM on Thursday 30 Oct 2014 (Local Time) from KFLP Reporting Station
Scattered Clouds Scattered Clouds  
Wind Chill: 64°   Ceiling: Unl
Heat Index: 64°   Visibility: 10mi
Dew Point: 39°   Wind: 0mph
Humidity: 40%   Direction: NA
Pressure: 30.09"   Gusts: NA
Location:  35.8223°N, 92.5849°W
Report Text: KFLP 301755Z AUTO 00000KT 10SM SCT100 18/04 A3009 RMK AO1 10180 20020 57020
Loading
Personal Weather Stations






























Interactive Weather Map
Tropical Storm Tracking
New forecast layout! Learn more

10-Day Weather Forecast

Advertisements
Track Severe Weather on mobile